createdAt,value
2024-03-29T00:02:05.224Z,58.58
2024-03-29T00:04:32.623Z,58.70
2024-03-29T00:07:02.616Z,58.76
2024-03-29T00:09:29.774Z,58.83
2024-03-29T00:11:56.701Z,58.75
2024-03-29T00:14:23.766Z,58.83
2024-03-29T00:16:51.142Z,58.53
2024-03-29T00:19:18.468Z,58.30
2024-03-29T00:21:45.809Z,58.53
2024-03-29T00:24:12.813Z,58.86
2024-03-29T00:26:40.947Z,59.03
2024-03-29T00:29:08.013Z,58.83
2024-03-29T00:31:34.813Z,58.93
2024-03-29T00:34:01.736Z,58.82
2024-03-29T00:36:28.495Z,59.06
2024-03-29T00:38:56.536Z,59.12
2024-03-29T00:41:24.681Z,59.25
2024-03-29T00:43:52.492Z,59.29
2024-03-29T00:46:22.641Z,59.13
2024-03-29T00:48:50.921Z,59.23
2024-03-29T00:51:18.776Z,59.23
2024-03-29T00:53:46.756Z,59.18
2024-03-29T00:56:14.101Z,59.32
2024-03-29T00:58:41.981Z,59.23
2024-03-29T01:01:12.815Z,59.48
2024-03-29T01:03:43.041Z,59.33
2024-03-29T01:06:12.408Z,59.30
2024-03-29T01:08:41.440Z,59.13
2024-03-29T01:11:09.147Z,59.36
2024-03-29T01:13:36.178Z,59.14
2024-03-29T01:16:03.564Z,59.08
2024-03-29T01:18:31.333Z,58.94
2024-03-29T01:20:58.886Z,58.98
2024-03-29T01:23:25.835Z,58.99
2024-03-29T01:25:52.680Z,58.86
2024-03-29T01:28:19.513Z,58.97
2024-03-29T01:30:53.533Z,58.90
2024-03-29T01:33:20.837Z,58.89
2024-03-29T01:35:48.805Z,58.72
2024-03-29T01:38:16.371Z,59.10
2024-03-29T01:40:43.971Z,59.02
2024-03-29T01:43:10.783Z,58.99
2024-03-29T01:45:40.729Z,59.10
2024-03-29T01:48:08.296Z,59.03
2024-03-29T01:50:35.778Z,58.99
2024-03-29T01:53:03.388Z,58.81
2024-03-29T01:55:30.454Z,58.80
2024-03-29T01:58:00.278Z,59.17
2024-03-29T02:00:28.227Z,59.08
2024-03-29T02:02:55.807Z,58.99
2024-03-29T02:05:23.486Z,59.24
2024-03-29T02:07:52.046Z,59.26
2024-03-29T02:10:20.138Z,59.29
2024-03-29T02:12:47.336Z,59.24
2024-03-29T02:15:17.767Z,59.30
2024-03-29T02:17:44.945Z,59.22
2024-03-29T02:20:19.433Z,59.12
2024-03-29T02:23:02.398Z,59.32
2024-03-29T02:25:29.099Z,59.21
2024-03-29T02:27:57.611Z,59.44
2024-03-29T02:30:24.981Z,59.24
2024-03-29T02:32:51.757Z,59.36
2024-03-29T02:35:19.322Z,59.34
2024-03-29T02:37:48.522Z,59.22
2024-03-29T02:40:15.830Z,59.12
2024-03-29T02:42:43.428Z,59.05
2024-03-29T02:45:10.674Z,59.09
2024-03-29T02:47:37.883Z,59.16
2024-03-29T02:50:04.775Z,59.19
2024-03-29T02:52:31.859Z,59.37
2024-03-29T02:54:58.549Z,59.29
2024-03-29T02:57:25.422Z,59.40
2024-03-29T02:59:52.320Z,59.39
2024-03-29T03:02:19.226Z,59.30
2024-03-29T03:04:46.275Z,59.18
2024-03-29T03:07:31.628Z,59.07
2024-03-29T03:10:16.710Z,59.11
2024-03-29T03:12:45.688Z,59.36
2024-03-29T03:15:12.664Z,59.25
2024-03-29T03:17:40.101Z,59.14
2024-03-29T03:20:08.623Z,59.34
2024-03-29T03:22:35.726Z,59.11
2024-03-29T03:25:02.628Z,59.18
2024-03-29T03:27:29.847Z,59.34
2024-03-29T03:29:56.610Z,59.64
2024-03-29T03:32:23.515Z,59.45
2024-03-29T03:34:50.555Z,59.50
2024-03-29T03:37:17.984Z,59.71
2024-03-29T03:39:44.805Z,60.08
2024-03-29T03:42:11.562Z,60.33
2024-03-29T03:44:38.449Z,60.45
2024-03-29T03:47:05.600Z,60.44
2024-03-29T03:49:32.376Z,60.71
2024-03-29T03:51:59.779Z,60.50
2024-03-29T03:54:26.798Z,60.38
2024-03-29T03:56:53.625Z,60.44
2024-03-29T03:59:20.451Z,60.40
2024-03-29T04:01:49.784Z,60.67
2024-03-29T04:04:18.537Z,60.81
2024-03-29T04:06:45.591Z,60.53
2024-03-29T04:09:12.513Z,60.59
2024-03-29T04:11:40.148Z,60.46
2024-03-29T04:14:07.782Z,60.44
2024-03-29T04:16:34.891Z,60.44
2024-03-29T04:19:02.589Z,60.47
2024-03-29T04:21:29.552Z,60.36
2024-03-29T04:23:56.551Z,60.31
2024-03-29T04:26:24.024Z,60.23
2024-03-29T04:28:51.574Z,60.37
2024-03-29T04:31:19.174Z,60.25
2024-03-29T04:33:47.313Z,60.36
2024-03-29T04:36:14.284Z,60.50
2024-03-29T04:38:45.601Z,60.66
2024-03-29T04:41:12.657Z,60.60
2024-03-29T04:43:41.425Z,60.67
2024-03-29T04:46:15.475Z,60.67
2024-03-29T04:48:43.799Z,60.75
2024-03-29T04:51:11.168Z,60.56
2024-03-29T04:53:39.462Z,60.92
2024-03-29T04:56:07.078Z,60.86
2024-03-29T04:58:34.816Z,60.70
2024-03-29T05:01:01.921Z,60.65
2024-03-29T05:03:28.986Z,60.35
2024-03-29T05:05:57.592Z,60.22
2024-03-29T05:08:24.537Z,60.06
2024-03-29T05:10:52.570Z,59.50
2024-03-29T05:13:23.938Z,59.53
2024-03-29T05:15:50.942Z,59.28
2024-03-29T05:18:17.860Z,59.40
2024-03-29T05:20:48.706Z,59.35
2024-03-29T05:23:15.771Z,59.20
2024-03-29T05:25:43.512Z,59.05
2024-03-29T05:28:11.772Z,58.77
2024-03-29T05:30:38.612Z,58.81
2024-03-29T05:33:08.165Z,58.73
2024-03-29T05:35:37.859Z,58.61
2024-03-29T05:38:04.874Z,58.46
2024-03-29T05:40:31.765Z,58.31
2024-03-29T05:42:58.671Z,58.09
2024-03-29T05:45:30.797Z,57.99
2024-03-29T05:47:59.669Z,57.06
2024-03-29T05:50:26.996Z,55.03
2024-03-29T05:52:53.911Z,52.12
2024-03-29T05:55:21.294Z,49.57
2024-03-29T05:57:49.663Z,46.35
2024-03-29T06:00:16.953Z,43.08
2024-03-29T06:02:50.424Z,42.05
2024-03-29T06:05:17.701Z,39.29
2024-03-29T06:07:44.514Z,36.43
2024-03-29T06:10:12.760Z,35.38
2024-03-29T06:12:42.989Z,34.18
2024-03-29T06:15:29.592Z,33.44
2024-03-29T06:17:56.607Z,31.77
2024-03-29T06:20:23.365Z,31.70
2024-03-29T06:22:50.878Z,31.33
2024-03-29T06:25:18.004Z,28.81
2024-03-29T06:27:48.819Z,28.34
2024-03-29T06:30:37.180Z,28.02
2024-03-29T06:33:05.995Z,29.32
2024-03-29T06:35:32.746Z,28.97
2024-03-29T06:38:00.095Z,27.99
2024-03-29T06:40:26.980Z,27.44
2024-03-29T06:42:55.041Z,27.44
2024-03-29T06:45:22.395Z,27.72
2024-03-29T06:47:49.939Z,28.59
2024-03-29T06:50:16.926Z,28.92
2024-03-29T06:52:44.034Z,28.96
2024-03-29T06:55:11.717Z,29.16
2024-03-29T06:57:39.343Z,30.20
2024-03-29T07:00:07.805Z,31.25
2024-03-29T07:02:35.211Z,31.87
2024-03-29T07:05:10.542Z,32.73
2024-03-29T07:07:37.908Z,33.70
2024-03-29T07:10:05.178Z,34.81
2024-03-29T07:12:32.112Z,35.71
2024-03-29T07:14:58.906Z,36.31
2024-03-29T07:17:25.713Z,37.61
2024-03-29T07:19:52.728Z,37.91
2024-03-29T07:22:31.734Z,38.24
2024-03-29T07:25:03.819Z,38.13
2024-03-29T07:27:35.060Z,37.79
2024-03-29T07:30:05.331Z,37.21
2024-03-29T07:32:32.851Z,36.98
2024-03-29T07:35:01.630Z,36.94
2024-03-29T07:37:28.550Z,36.86
2024-03-29T07:39:55.524Z,36.28
2024-03-29T07:42:23.524Z,35.66
2024-03-29T07:44:51.631Z,36.05
2024-03-29T07:47:19.765Z,36.26
2024-03-29T07:49:47.193Z,35.88
2024-03-29T07:52:15.531Z,35.55
2024-03-29T07:54:42.900Z,35.45
2024-03-29T07:57:09.921Z,35.67
2024-03-29T07:59:36.983Z,34.34
2024-03-29T08:02:07.462Z,34.59
2024-03-29T08:04:35.347Z,33.11
2024-03-29T08:07:03.633Z,32.01
2024-03-29T08:09:30.406Z,30.60
2024-03-29T08:11:57.564Z,29.91
2024-03-29T08:14:27.948Z,29.60
2024-03-29T08:16:56.557Z,28.87
2024-03-29T08:19:25.193Z,28.04
2024-03-29T08:21:52.414Z,26.94
2024-03-29T08:24:22.839Z,26.46
2024-03-29T08:26:49.808Z,25.99
2024-03-29T08:29:17.864Z,25.75
2024-03-29T08:31:44.727Z,25.85
2024-03-29T08:34:14.461Z,26.40
2024-03-29T08:36:41.453Z,26.38
2024-03-29T08:39:09.016Z,26.72
2024-03-29T08:41:35.910Z,25.83
2024-03-29T08:44:03.400Z,25.69
2024-03-29T08:46:32.116Z,25.57
2024-03-29T08:48:59.357Z,24.51
2024-03-29T08:51:26.302Z,24.48
2024-03-29T08:53:53.301Z,24.13
2024-03-29T08:56:23.320Z,24.91
2024-03-29T08:58:50.113Z,24.14
2024-03-29T09:01:17.448Z,24.44
2024-03-29T09:03:44.649Z,24.69
2024-03-29T09:06:12.571Z,24.67
2024-03-29T09:08:39.486Z,25.39
2024-03-29T09:11:06.436Z,25.24
2024-03-29T09:13:33.939Z,24.75
2024-03-29T09:16:00.758Z,25.87
2024-03-29T09:18:28.948Z,26.84
2024-03-29T09:21:02.388Z,27.01
2024-03-29T09:23:30.082Z,28.30
2024-03-29T09:25:58.335Z,28.97
2024-03-29T09:28:39.498Z,28.76
2024-03-29T09:31:27.028Z,29.30
2024-03-29T09:34:00.643Z,30.26
2024-03-29T09:36:27.640Z,30.15
2024-03-29T09:38:54.577Z,30.38
2024-03-29T09:41:21.708Z,30.20
2024-03-29T09:43:50.764Z,29.95
2024-03-29T09:46:19.858Z,30.33
2024-03-29T09:48:48.728Z,30.29
2024-03-29T09:51:15.544Z,30.19
2024-03-29T09:53:44.312Z,30.27
2024-03-29T09:56:11.499Z,30.29
2024-03-29T09:58:43.051Z,30.05
2024-03-29T10:01:13.446Z,30.33
2024-03-29T10:03:46.063Z,29.99
2024-03-29T10:06:14.829Z,30.65
2024-03-29T10:08:42.236Z,31.04
2024-03-29T10:11:09.893Z,30.77
2024-03-29T10:13:38.759Z,30.31
2024-03-29T10:16:06.317Z,30.14
2024-03-29T10:18:33.216Z,30.07
2024-03-29T10:21:05.828Z,30.63
2024-03-29T10:23:33.795Z,30.50
2024-03-29T10:26:00.681Z,30.44
2024-03-29T10:28:35.309Z,30.82
2024-03-29T10:31:06.701Z,30.97
2024-03-29T10:33:34.978Z,31.49
2024-03-29T10:36:07.461Z,31.86
2024-03-29T10:38:37.472Z,32.55
2024-03-29T10:41:07.582Z,32.11
2024-03-29T10:43:34.983Z,31.99
2024-03-29T10:46:02.458Z,32.63
2024-03-29T10:48:30.158Z,33.12
2024-03-29T10:50:59.093Z,33.30
2024-03-29T10:53:28.545Z,33.80
2024-03-29T10:55:59.151Z,32.76
2024-03-29T10:58:36.305Z,33.01
2024-03-29T11:01:06.914Z,33.31
2024-03-29T11:03:42.294Z,33.15
2024-03-29T11:06:16.034Z,33.27
2024-03-29T11:08:48.487Z,32.24
2024-03-29T11:11:18.828Z,32.58
2024-03-29T11:13:51.578Z,31.92
2024-03-29T11:16:21.979Z,30.82
2024-03-29T11:18:49.908Z,31.14
2024-03-29T11:21:21.827Z,31.60
2024-03-29T11:23:51.056Z,32.13
2024-03-29T11:26:18.670Z,31.69
2024-03-29T11:28:54.285Z,31.99
2024-03-29T11:31:25.774Z,30.76
2024-03-29T11:33:54.775Z,31.35
2024-03-29T11:36:29.859Z,32.99
2024-03-29T11:39:00.958Z,33.32
2024-03-29T11:41:30.667Z,33.40
2024-03-29T11:43:58.227Z,32.87
2024-03-29T11:46:28.396Z,32.99
2024-03-29T11:48:57.115Z,32.95
2024-03-29T11:51:27.515Z,32.94
2024-03-29T11:53:56.157Z,32.99
2024-03-29T11:56:23.518Z,32.80
2024-03-29T11:58:51.282Z,32.76
2024-03-29T12:01:19.482Z,33.09
2024-03-29T12:03:47.355Z,33.48
2024-03-29T12:06:15.932Z,32.99
2024-03-29T12:08:43.915Z,32.08
2024-03-29T12:11:11.416Z,31.39
2024-03-29T12:13:38.564Z,31.59
2024-03-29T12:16:08.376Z,31.47
2024-03-29T12:18:36.743Z,31.04
2024-03-29T12:21:04.585Z,31.79
2024-03-29T12:23:33.577Z,32.43
2024-03-29T12:26:01.915Z,32.35
2024-03-29T12:28:29.648Z,32.52
2024-03-29T12:30:57.677Z,32.74
2024-03-29T12:33:25.599Z,33.11
2024-03-29T12:35:56.124Z,33.46
2024-03-29T12:38:24.265Z,33.36
2024-03-29T12:40:52.323Z,33.52
2024-03-29T12:43:24.915Z,33.12
2024-03-29T12:45:53.415Z,32.50
2024-03-29T12:48:27.383Z,32.61
2024-03-29T12:50:54.937Z,32.92
2024-03-29T12:53:22.195Z,33.06
2024-03-29T12:55:50.528Z,33.33
2024-03-29T12:58:23.765Z,33.02
2024-03-29T13:00:50.876Z,33.41
2024-03-29T13:03:18.607Z,33.60
2024-03-29T13:05:45.764Z,33.76
2024-03-29T13:08:18.199Z,33.91
2024-03-29T13:10:48.205Z,33.84
2024-03-29T13:13:18.789Z,33.97
2024-03-29T13:15:49.136Z,34.07
2024-03-29T13:18:17.926Z,34.20
2024-03-29T13:20:45.121Z,34.22
2024-03-29T13:23:14.757Z,33.82
2024-03-29T13:25:43.083Z,33.51
2024-03-29T13:28:11.415Z,33.91
2024-03-29T13:30:44.604Z,34.10
2024-03-29T13:33:11.552Z,33.87
2024-03-29T13:35:40.233Z,34.25
2024-03-29T13:38:07.122Z,34.20
2024-03-29T13:40:35.852Z,34.20
2024-03-29T13:43:04.790Z,34.35
2024-03-29T13:45:33.450Z,34.26
2024-03-29T13:48:02.145Z,34.71
2024-03-29T13:50:30.862Z,35.06
2024-03-29T13:53:05.346Z,35.27
2024-03-29T13:55:32.538Z,35.54
2024-03-29T13:58:00.217Z,35.44
2024-03-29T14:00:27.189Z,35.43
2024-03-29T14:02:55.937Z,35.69
2024-03-29T14:05:23.579Z,35.68
2024-03-29T14:07:51.511Z,36.35
2024-03-29T14:10:21.284Z,36.40
2024-03-29T14:12:49.238Z,36.52
2024-03-29T14:15:17.128Z,36.57
2024-03-29T14:17:44.248Z,36.85
2024-03-29T14:20:17.354Z,36.86
2024-03-29T14:22:55.564Z,36.97
2024-03-29T14:25:22.891Z,37.38
2024-03-29T14:28:01.124Z,37.37
2024-03-29T14:30:29.960Z,37.34
2024-03-29T14:33:04.374Z,37.61
2024-03-29T14:35:32.492Z,37.66
2024-03-29T14:38:00.528Z,37.84
2024-03-29T14:40:30.092Z,37.64
2024-03-29T14:43:00.459Z,37.62
2024-03-29T14:45:28.418Z,37.77
2024-03-29T14:47:55.484Z,38.19
2024-03-29T14:50:23.520Z,38.00
2024-03-29T14:52:50.796Z,38.23
2024-03-29T14:55:17.746Z,38.46
2024-03-29T14:57:47.300Z,38.72
2024-03-29T15:00:17.454Z,39.11
2024-03-29T15:02:47.472Z,39.07
2024-03-29T15:05:14.555Z,39.34
2024-03-29T15:07:41.469Z,38.92
2024-03-29T15:10:11.468Z,39.41
2024-03-29T15:12:39.562Z,39.49
2024-03-29T15:15:07.921Z,39.67
2024-03-29T15:17:34.865Z,39.75
2024-03-29T15:20:13.818Z,40.26
2024-03-29T15:22:45.384Z,40.37
2024-03-29T15:25:12.626Z,40.21
2024-03-29T15:27:58.110Z,40.44
2024-03-29T15:30:24.999Z,40.25
2024-03-29T15:32:53.722Z,40.58
2024-03-29T15:35:20.830Z,40.76
2024-03-29T15:37:48.565Z,41.16
2024-03-29T15:40:15.504Z,41.32
2024-03-29T15:42:42.906Z,41.59
2024-03-29T15:45:10.793Z,41.70
2024-03-29T15:47:44.260Z,41.97
2024-03-29T15:50:15.874Z,42.27
2024-03-29T15:52:43.418Z,42.59
2024-03-29T15:55:10.270Z,42.79
2024-03-29T15:57:37.111Z,42.92
2024-03-29T16:00:05.423Z,43.07
2024-03-29T16:02:32.488Z,43.19
2024-03-29T16:05:01.746Z,43.40
2024-03-29T16:07:28.738Z,43.61
2024-03-29T16:10:03.049Z,43.88
2024-03-29T16:12:31.148Z,43.96
2024-03-29T16:14:57.865Z,44.23
2024-03-29T16:17:25.897Z,44.37
2024-03-29T16:19:52.642Z,44.54
2024-03-29T16:22:19.490Z,44.85
2024-03-29T16:24:46.539Z,45.16
2024-03-29T16:27:13.366Z,45.51
2024-03-29T16:29:41.003Z,45.91
2024-03-29T16:32:10.558Z,46.12
2024-03-29T16:34:37.299Z,46.42
2024-03-29T16:37:05.475Z,46.60
2024-03-29T16:39:32.767Z,46.87
2024-03-29T16:42:00.328Z,47.45
2024-03-29T16:44:27.518Z,47.53
2024-03-29T16:46:54.480Z,47.74
2024-03-29T16:49:22.831Z,47.90
2024-03-29T16:51:49.952Z,47.97
2024-03-29T16:54:17.405Z,48.11
2024-03-29T16:56:44.295Z,48.29
2024-03-29T16:59:11.118Z,48.35
2024-03-29T17:01:38.140Z,48.62
2024-03-29T17:04:07.514Z,48.71
2024-03-29T17:06:35.015Z,48.60
2024-03-29T17:09:03.203Z,48.76
2024-03-29T17:11:30.440Z,49.02
2024-03-29T17:13:58.030Z,48.89
2024-03-29T17:16:24.772Z,48.89
2024-03-29T17:18:51.767Z,49.11
2024-03-29T17:21:18.714Z,49.24
2024-03-29T17:23:46.223Z,49.11
2024-03-29T17:26:13.064Z,49.20
2024-03-29T17:28:40.463Z,49.44
2024-03-29T17:31:07.411Z,49.10
2024-03-29T17:33:34.365Z,49.34
2024-03-29T17:36:01.671Z,49.23
2024-03-29T17:38:28.607Z,49.48
2024-03-29T17:40:55.351Z,49.57
2024-03-29T17:43:22.465Z,49.53
2024-03-29T17:45:49.452Z,49.64
2024-03-29T17:48:17.071Z,49.63
2024-03-29T17:50:44.948Z,49.69
2024-03-29T17:53:12.042Z,49.79
2024-03-29T17:55:40.094Z,49.89
2024-03-29T17:58:07.091Z,50.24
2024-03-29T18:00:33.936Z,50.12
2024-03-29T18:03:02.383Z,50.38
2024-03-29T18:05:30.501Z,50.55
2024-03-29T18:07:57.481Z,51.21
2024-03-29T18:10:24.724Z,51.18
2024-03-29T18:12:51.838Z,51.12
2024-03-29T18:15:44.192Z,51.11
2024-03-29T18:18:18.831Z,51.20
2024-03-29T18:20:48.830Z,51.43
2024-03-29T18:23:16.072Z,51.29
2024-03-29T18:25:42.962Z,51.24
2024-03-29T18:28:09.922Z,51.44
2024-03-29T18:30:38.453Z,51.79
2024-03-29T18:33:05.400Z,51.68
2024-03-29T18:35:32.418Z,51.96
2024-03-29T18:37:59.427Z,52.00
2024-03-29T18:40:26.762Z,52.14
2024-03-29T18:42:54.367Z,52.38
2024-03-29T18:45:24.274Z,52.76
2024-03-29T18:47:51.595Z,52.80
2024-03-29T18:50:20.028Z,53.27
2024-03-29T18:52:47.245Z,53.57
2024-03-29T18:55:15.670Z,53.97
2024-03-29T18:57:42.364Z,53.71
2024-03-29T19:00:12.143Z,53.95
2024-03-29T19:02:39.451Z,53.94
2024-03-29T19:05:06.407Z,54.13
2024-03-29T19:07:33.261Z,53.84
2024-03-29T19:10:00.637Z,53.86
2024-03-29T19:12:28.524Z,53.65
2024-03-29T19:14:56.179Z,53.78
2024-03-29T19:17:23.558Z,53.67
2024-03-29T19:19:51.894Z,53.60
2024-03-29T19:22:19.473Z,53.79
2024-03-29T19:24:49.332Z,53.67
2024-03-29T19:27:16.295Z,53.54
2024-03-29T19:29:43.194Z,53.70
2024-03-29T19:32:10.566Z,53.81
2024-03-29T19:34:37.734Z,53.83
2024-03-29T19:37:05.882Z,53.73
2024-03-29T19:39:33.416Z,53.92
2024-03-29T19:42:00.741Z,53.66
2024-03-29T19:44:27.713Z,53.85
2024-03-29T19:46:54.927Z,53.79
2024-03-29T19:49:22.834Z,53.57
2024-03-29T19:51:50.485Z,53.61
2024-03-29T19:54:17.845Z,53.61
2024-03-29T19:56:44.695Z,53.92
2024-03-29T19:59:11.562Z,53.67
2024-03-29T20:01:39.187Z,53.96
2024-03-29T20:04:06.168Z,53.76
2024-03-29T20:06:33.542Z,53.77
2024-03-29T20:09:02.357Z,53.85
2024-03-29T20:11:29.218Z,54.08
2024-03-29T20:13:56.582Z,53.90
2024-03-29T20:16:23.587Z,53.86
2024-03-29T20:18:51.661Z,53.61
2024-03-29T20:21:18.617Z,53.63
2024-03-29T20:23:45.710Z,53.74
2024-03-29T20:26:15.124Z,53.56
2024-03-29T20:28:43.113Z,53.38
2024-03-29T20:31:10.421Z,53.30
2024-03-29T20:33:37.800Z,53.19
2024-03-29T20:36:07.074Z,53.37
2024-03-29T20:38:34.578Z,53.02
2024-03-29T20:41:01.370Z,52.61
2024-03-29T20:43:28.316Z,52.92
2024-03-29T20:45:56.604Z,52.95
2024-03-29T20:48:23.628Z,53.06
2024-03-29T20:50:58.171Z,53.21
2024-03-29T20:53:25.784Z,53.35
2024-03-29T20:55:52.891Z,53.09
2024-03-29T20:58:20.072Z,52.89
2024-03-29T21:00:47.060Z,53.20
2024-03-29T21:03:33.275Z,53.32
2024-03-29T21:06:00.730Z,53.25
2024-03-29T21:08:28.802Z,53.25
2024-03-29T21:10:57.703Z,53.17
2024-03-29T21:13:24.789Z,53.17
2024-03-29T21:15:51.902Z,53.24
2024-03-29T21:18:20.020Z,53.18
2024-03-29T21:20:49.186Z,53.10
2024-03-29T21:23:16.161Z,53.04
2024-03-29T21:25:45.665Z,53.12
2024-03-29T21:28:12.658Z,52.99
2024-03-29T21:30:41.086Z,52.74
2024-03-29T21:33:07.690Z,53.03
2024-03-29T21:35:36.392Z,53.09
2024-03-29T21:38:04.929Z,53.00
2024-03-29T21:40:33.121Z,53.34
2024-03-29T21:43:00.484Z,53.65
2024-03-29T21:45:29.209Z,53.54
2024-03-29T21:47:56.508Z,53.41
2024-03-29T21:50:23.775Z,53.40
2024-03-29T21:52:50.600Z,53.46
2024-03-29T21:55:17.584Z,53.41
2024-03-29T21:57:44.564Z,53.80
2024-03-29T22:00:12.841Z,53.92
2024-03-29T22:02:43.383Z,53.91
2024-03-29T22:05:10.310Z,53.98
2024-03-29T22:07:37.991Z,54.03
2024-03-29T22:10:05.047Z,53.60
2024-03-29T22:12:38.267Z,53.23
2024-03-29T22:15:06.316Z,53.03
2024-03-29T22:17:33.290Z,53.09
2024-03-29T22:20:00.272Z,53.15
2024-03-29T22:22:27.784Z,53.12
2024-03-29T22:24:57.116Z,53.24
2024-03-29T22:27:25.945Z,52.98
2024-03-29T22:29:52.705Z,53.00
2024-03-29T22:32:19.667Z,53.04
2024-03-29T22:34:46.650Z,52.95
2024-03-29T22:37:13.655Z,52.90
2024-03-29T22:39:40.940Z,53.14
2024-03-29T22:42:08.939Z,52.82
2024-03-29T22:44:35.945Z,52.85
2024-03-29T22:47:02.891Z,52.86
2024-03-29T22:49:30.416Z,52.82
2024-03-29T22:51:57.239Z,52.76
2024-03-29T22:54:25.187Z,52.91
2024-03-29T22:56:52.111Z,53.02
2024-03-29T22:59:21.095Z,53.11
2024-03-29T23:01:53.563Z,53.31
2024-03-29T23:04:20.728Z,53.21
2024-03-29T23:06:47.618Z,53.29
2024-03-29T23:09:19.011Z,53.32
2024-03-29T23:11:45.808Z,53.44
2024-03-29T23:14:12.594Z,53.56
2024-03-29T23:16:39.837Z,53.47
2024-03-29T23:19:18.251Z,53.87
2024-03-29T23:21:47.006Z,53.49
2024-03-29T23:24:15.117Z,53.41
2024-03-29T23:26:42.521Z,53.45
2024-03-29T23:29:09.634Z,53.55
2024-03-29T23:31:37.028Z,53.49
2024-03-29T23:34:04.550Z,53.58
2024-03-29T23:36:32.610Z,53.82
2024-03-29T23:39:02.061Z,53.76
2024-03-29T23:41:29.417Z,53.87
2024-03-29T23:43:56.308Z,53.82
2024-03-29T23:46:23.148Z,53.88
2024-03-29T23:48:50.050Z,53.67
2024-03-29T23:51:16.835Z,53.70
2024-03-29T23:53:43.938Z,53.82
2024-03-29T23:56:11.281Z,53.52
2024-03-29T23:58:38.183Z,53.12
